Gay Hill, Texas
Current Conditions -  °F | °C
As of 7:15 PM on Sunday 21 Dec 2014 (Local Time) from K11R Reporting Station
Broken Clouds Broken Clouds  
Wind Chill: 58°   Ceiling: 2100
Heat Index: 58°   Visibility: 10mi
Dew Point: 53°   Wind: 0mph
Humidity: 84%   Direction: NA
Pressure: 29.92"   Gusts: NA
Location:  30.2352°N, 96.4076°W
Report Text: K11R 220115Z AUTO 00000KT 10SM BKN021 BKN035 15/12 A2992 RMK AO2 T01450118
Loading
Personal Weather Stations






























Interactive Weather Map New forecast layout! Learn more

10-Day Weather Forecast

Advertisements
Track Severe Weather on mobile